createdAt,value
2023-05-17T00:01:59.699Z,2.70
2023-05-17T00:04:26.387Z,2.45
2023-05-17T00:06:53.038Z,2.30
2023-05-17T00:09:19.685Z,2.10
2023-05-17T00:11:46.321Z,2.92
2023-05-17T00:14:13.009Z,2.08
2023-05-17T00:16:39.634Z,2.40
2023-05-17T00:19:06.493Z,3.58
2023-05-17T00:21:33.247Z,2.92
2023-05-17T00:23:59.967Z,2.90
2023-05-17T00:26:26.662Z,3.10
2023-05-17T00:28:53.354Z,4.15
2023-05-17T00:31:20.058Z,4.05
2023-05-17T00:33:47.696Z,4.53
2023-05-17T00:36:14.486Z,4.28
2023-05-17T00:38:41.132Z,4.57
2023-05-17T00:41:07.847Z,3.90
2023-05-17T00:43:34.635Z,5.15
2023-05-17T00:46:01.463Z,5.05
2023-05-17T00:48:29.318Z,5.15
2023-05-17T00:50:56.407Z,5.07
2023-05-17T00:53:23.052Z,5.15
2023-05-17T00:55:49.670Z,5.03
2023-05-17T00:58:16.426Z,4.90
2023-05-17T01:00:43.310Z,8.70
2023-05-17T01:03:10.033Z,4.68
2023-05-17T01:05:36.807Z,5.95
2023-05-17T01:08:03.456Z,6.65
2023-05-17T01:10:39.620Z,5.68
2023-05-17T01:13:11.102Z,5.88
2023-05-17T01:15:42.254Z,4.70
2023-05-17T01:18:32.029Z,4.93
2023-05-17T01:20:59.804Z,4.47
2023-05-17T01:23:56.169Z,4.18
2023-05-17T01:26:44.261Z,6.28
2023-05-17T01:29:10.962Z,3.08
2023-05-17T01:31:37.654Z,2.58
2023-05-17T01:34:10.570Z,3.25
2023-05-17T01:36:37.422Z,3.97
2023-05-17T01:39:04.079Z,3.28
2023-05-17T01:41:35.864Z,2.00
2023-05-17T01:44:17.625Z,1.58
2023-05-17T01:46:44.378Z,1.70
2023-05-17T01:49:32.716Z,1.20
2023-05-17T01:52:21.417Z,1.17
2023-05-17T01:55:08.047Z,0.93
2023-05-17T01:57:36.751Z,1.10
2023-05-17T02:00:06.714Z,1.00
2023-05-17T02:02:33.426Z,0.80
2023-05-17T02:05:00.115Z,1.20
2023-05-17T02:07:26.813Z,1.75
2023-05-17T02:09:53.478Z,1.45
2023-05-17T02:12:20.175Z,1.00
2023-05-17T02:14:47.203Z,3.92
2023-05-17T02:17:13.887Z,1.50
2023-05-17T02:19:40.568Z,1.10
2023-05-17T02:22:07.357Z,1.35
2023-05-17T02:24:34.025Z,0.88
2023-05-17T02:27:01.028Z,0.85
2023-05-17T02:29:27.703Z,0.80
2023-05-17T02:31:54.348Z,1.00
2023-05-17T02:34:21.079Z,3.95
2023-05-17T02:36:48.673Z,1.50
2023-05-17T02:39:15.389Z,1.33
2023-05-17T02:41:42.064Z,1.25
2023-05-17T02:44:08.696Z,0.88
2023-05-17T02:46:38.253Z,1.77
2023-05-17T02:49:05.196Z,1.27
2023-05-17T02:51:31.894Z,1.83
2023-05-17T02:53:58.523Z,1.70
2023-05-17T02:56:25.215Z,2.50
2023-05-17T02:58:52.015Z,3.10
2023-05-17T03:01:18.645Z,3.40
2023-05-17T03:03:45.675Z,3.30
2023-05-17T03:06:12.522Z,2.92
2023-05-17T03:08:39.153Z,3.22
2023-05-17T03:11:06.115Z,3.58
2023-05-17T03:13:32.858Z,3.67
2023-05-17T03:15:59.547Z,3.58
2023-05-17T03:18:26.345Z,3.88
2023-05-17T03:20:53.069Z,3.72
2023-05-17T03:23:19.699Z,3.85
2023-05-17T03:25:46.362Z,3.80
2023-05-17T03:28:13.221Z,5.32
2023-05-17T03:30:39.891Z,3.95
2023-05-17T03:33:06.725Z,4.70
2023-05-17T03:35:33.399Z,3.95
2023-05-17T03:38:00.028Z,4.18
2023-05-17T03:40:26.772Z,3.45
2023-05-17T03:42:54.358Z,4.88
2023-05-17T03:45:21.052Z,4.20
2023-05-17T03:47:47.732Z,4.32
2023-05-17T03:50:14.429Z,4.82
2023-05-17T03:52:42.171Z,4.20
2023-05-17T03:55:09.555Z,3.60
2023-05-17T03:57:36.202Z,4.60
2023-05-17T04:00:06.491Z,3.70
2023-05-17T04:02:33.175Z,4.72
2023-05-17T04:04:59.825Z,4.22
2023-05-17T04:07:26.599Z,4.57
2023-05-17T04:09:53.649Z,4.93
2023-05-17T04:12:20.562Z,3.72
2023-05-17T04:14:47.197Z,4.03
2023-05-17T04:17:16.273Z,4.45
2023-05-17T04:19:43.517Z,5.28
2023-05-17T04:22:10.184Z,4.13
2023-05-17T04:24:36.892Z,3.75
2023-05-17T04:27:06.997Z,4.90
2023-05-17T04:29:33.643Z,3.55
2023-05-17T04:32:00.720Z,6.07
2023-05-17T04:34:27.831Z,3.40
2023-05-17T04:36:54.500Z,4.18
2023-05-17T04:39:21.156Z,4.38
2023-05-17T04:41:47.822Z,3.75
2023-05-17T04:44:14.511Z,3.85
2023-05-17T04:46:42.234Z,5.15
2023-05-17T04:49:08.899Z,5.20
2023-05-17T04:51:35.819Z,4.50
2023-05-17T04:54:03.302Z,3.55
2023-05-17T04:56:29.911Z,4.03
2023-05-17T04:58:56.543Z,4.20
2023-05-17T05:01:23.253Z,5.30
2023-05-17T05:03:50.043Z,3.92
2023-05-17T05:06:16.793Z,5.93
2023-05-17T05:08:43.464Z,6.20
2023-05-17T05:11:10.082Z,4.50
2023-05-17T05:13:39.025Z,5.25
2023-05-17T05:16:06.324Z,4.63
2023-05-17T05:18:33.148Z,4.88
2023-05-17T05:21:00.375Z,5.43
2023-05-17T05:23:27.052Z,6.55
2023-05-17T05:25:53.955Z,4.80
2023-05-17T05:28:20.854Z,5.53
2023-05-17T05:30:47.585Z,6.18
2023-05-17T05:33:14.355Z,5.53
2023-05-17T05:35:41.121Z,7.13
2023-05-17T05:38:08.049Z,7.50
2023-05-17T05:40:34.843Z,6.10
2023-05-17T05:43:01.489Z,6.75
2023-05-17T05:45:28.163Z,6.95
2023-05-17T05:47:54.878Z,6.95
2023-05-17T05:50:21.735Z,6.28
2023-05-17T05:52:50.881Z,9.43
2023-05-17T05:55:17.562Z,5.40
2023-05-17T05:57:44.201Z,6.75
2023-05-17T06:00:12.058Z,7.07
2023-05-17T06:02:38.840Z,6.20
2023-05-17T06:05:05.863Z,7.13
2023-05-17T06:07:32.568Z,6.05
2023-05-17T06:09:59.200Z,5.07
2023-05-17T06:12:26.650Z,6.60
2023-05-17T06:14:53.363Z,5.90
2023-05-17T06:17:21.488Z,5.72
2023-05-17T06:19:49.480Z,5.28
2023-05-17T06:22:16.389Z,5.28
2023-05-17T06:24:43.128Z,5.40
2023-05-17T06:27:09.828Z,4.60
2023-05-17T06:29:36.524Z,5.13
2023-05-17T06:32:03.301Z,5.20
2023-05-17T06:34:29.971Z,4.13
2023-05-17T06:36:56.711Z,4.20
2023-05-17T06:39:23.339Z,5.40
2023-05-17T06:41:50.381Z,4.40
2023-05-17T06:44:17.921Z,5.35
2023-05-17T06:46:44.547Z,4.45
2023-05-17T06:49:11.334Z,5.15
2023-05-17T06:51:38.030Z,5.25
2023-05-17T06:54:04.705Z,4.95
2023-05-17T06:56:31.886Z,3.67
2023-05-17T06:58:58.608Z,4.47
2023-05-17T07:01:25.870Z,5.63
2023-05-17T07:03:52.814Z,4.85
2023-05-17T07:06:19.926Z,5.40
2023-05-17T07:08:46.712Z,5.53
2023-05-17T07:11:13.354Z,4.32
2023-05-17T07:13:40.028Z,6.30
2023-05-17T07:16:10.319Z,4.28
2023-05-17T07:18:37.120Z,6.20
2023-05-17T07:21:04.093Z,5.80
2023-05-17T07:23:30.762Z,7.35
2023-05-17T07:25:57.671Z,5.55
2023-05-17T07:28:24.329Z,5.28
2023-05-17T07:30:51.179Z,5.47
2023-05-17T07:33:17.831Z,5.68
2023-05-17T07:35:44.524Z,5.30
2023-05-17T07:38:11.181Z,4.43
2023-05-17T07:40:38.050Z,6.10
2023-05-17T07:43:04.677Z,5.65
2023-05-17T07:45:31.547Z,4.38
2023-05-17T07:47:58.473Z,4.35
2023-05-17T07:50:26.080Z,4.40
2023-05-17T07:52:52.739Z,4.72
2023-05-17T07:55:20.689Z,5.47
2023-05-17T07:57:48.311Z,4.10
2023-05-17T08:00:15.540Z,6.22
2023-05-17T08:02:42.751Z,4.20
2023-05-17T08:05:09.940Z,4.03
2023-05-17T08:07:36.648Z,3.78
2023-05-17T08:10:03.358Z,3.33
2023-05-17T08:12:30.034Z,4.60
2023-05-17T08:14:56.701Z,4.47
2023-05-17T08:17:23.456Z,5.28
2023-05-17T08:19:51.978Z,5.07
2023-05-17T08:22:19.966Z,4.78
2023-05-17T08:24:46.625Z,4.30
2023-05-17T08:27:13.341Z,4.78
2023-05-17T08:29:40.104Z,3.92
2023-05-17T08:32:07.204Z,3.95
2023-05-17T08:34:33.860Z,4.40
2023-05-17T08:37:02.243Z,4.03
2023-05-17T08:39:28.956Z,3.67
2023-05-17T08:41:59.542Z,5.38
2023-05-17T08:44:28.078Z,3.75
2023-05-17T08:46:55.296Z,4.30
2023-05-17T08:49:22.524Z,4.63
2023-05-17T08:51:53.676Z,5.80
2023-05-17T08:54:20.324Z,5.45
2023-05-17T08:56:47.281Z,5.95
2023-05-17T08:59:13.922Z,5.53
2023-05-17T09:01:41.412Z,5.63
2023-05-17T09:04:09.889Z,5.25
2023-05-17T09:06:37.251Z,5.38
2023-05-17T09:09:04.741Z,6.72
2023-05-17T09:11:33.198Z,6.32
2023-05-17T09:14:05.284Z,6.50
2023-05-17T09:16:33.910Z,7.03
2023-05-17T09:19:01.381Z,5.88
2023-05-17T09:21:28.501Z,6.30
2023-05-17T09:24:05.306Z,5.47
2023-05-17T09:26:46.122Z,6.10
2023-05-17T09:29:16.326Z,7.28
2023-05-17T09:31:43.327Z,8.27
2023-05-17T09:34:10.327Z,6.38
2023-05-17T09:36:37.728Z,11.43
2023-05-17T09:39:06.117Z,6.22
2023-05-17T09:41:33.815Z,7.18
2023-05-17T09:44:01.463Z,6.28
2023-05-17T09:46:28.992Z,11.10
2023-05-17T09:48:56.487Z,11.15
2023-05-17T09:51:34.095Z,8.65
2023-05-17T09:54:00.921Z,9.75
2023-05-17T09:56:31.402Z,9.35
2023-05-17T09:59:01.372Z,9.77
2023-05-17T10:01:29.271Z,10.48
2023-05-17T10:03:56.625Z,10.27
2023-05-17T10:06:38.518Z,11.52
2023-05-17T10:09:10.952Z,10.98
2023-05-17T10:11:37.881Z,9.80
2023-05-17T10:14:32.148Z,8.30
2023-05-17T10:16:59.006Z,7.20
2023-05-17T10:19:25.875Z,10.88
2023-05-17T10:21:53.210Z,9.60
2023-05-17T10:24:20.801Z,13.27
2023-05-17T10:26:52.049Z,13.35
2023-05-17T10:29:21.147Z,8.82
2023-05-17T10:31:48.016Z,9.77
2023-05-17T10:34:17.275Z,11.38
2023-05-17T10:36:44.137Z,7.65
2023-05-17T10:39:11.037Z,9.70
2023-05-17T10:41:39.980Z,7.80
2023-05-17T10:44:08.040Z,8.52
2023-05-17T10:46:34.790Z,9.82
2023-05-17T10:49:01.755Z,9.25
2023-05-17T10:51:36.773Z,10.23
2023-05-17T10:56:32.966Z,7.03
2023-05-17T10:59:35.829Z,9.05
2023-05-17T11:02:06.437Z,10.60
2023-05-17T11:04:37.428Z,9.65
2023-05-17T11:07:22.383Z,10.95
2023-05-17T11:10:06.275Z,9.45
2023-05-17T11:12:43.181Z,10.43
2023-05-17T11:15:11.127Z,7.72
2023-05-17T11:17:58.280Z,6.93
2023-05-17T11:20:25.033Z,7.38
2023-05-17T11:23:00.919Z,8.98
2023-05-17T11:25:31.784Z,9.20
2023-05-17T11:27:58.632Z,9.77
2023-05-17T11:30:30.669Z,8.93
2023-05-17T11:33:02.853Z,9.18
2023-05-17T11:35:37.285Z,9.85
2023-05-17T11:38:16.590Z,11.43
2023-05-17T11:40:43.690Z,11.27
2023-05-17T11:43:17.872Z,8.68
2023-05-17T11:45:58.137Z,10.38
2023-05-17T11:48:26.157Z,10.93
2023-05-17T11:50:54.610Z,7.75
2023-05-17T11:53:21.655Z,11.57
2023-05-17T11:55:52.296Z,7.82
2023-05-17T11:58:24.507Z,7.80
2023-05-17T12:00:55.317Z,9.45
2023-05-17T12:03:25.975Z,9.15
2023-05-17T12:06:02.328Z,9.90
2023-05-17T12:08:28.993Z,6.00
2023-05-17T12:10:57.173Z,7.63
2023-05-17T12:13:23.864Z,9.60
2023-05-17T12:16:06.105Z,8.40
2023-05-17T12:18:37.055Z,9.00
2023-05-17T12:21:04.061Z,8.13
2023-05-17T12:23:38.151Z,9.13
2023-05-17T12:26:12.373Z,7.87
2023-05-17T12:28:40.019Z,9.60
2023-05-17T12:31:15.332Z,9.73
2023-05-17T12:33:43.035Z,13.35
2023-05-17T12:36:10.899Z,13.25
2023-05-17T12:38:38.437Z,9.07
2023-05-17T12:41:06.045Z,6.18
2023-05-17T12:43:37.085Z,9.18
2023-05-17T12:46:07.903Z,10.82
2023-05-17T12:48:38.634Z,9.88
2023-05-17T12:51:16.369Z,8.43
2023-05-17T12:54:01.191Z,8.20
2023-05-17T12:56:28.753Z,9.90
2023-05-17T12:59:13.982Z,8.88
2023-05-17T13:01:44.016Z,5.88
2023-05-17T13:04:10.967Z,8.00
2023-05-17T13:06:56.943Z,5.75
2023-05-17T13:09:24.914Z,8.10
2023-05-17T13:12:05.677Z,7.55
2023-05-17T13:14:41.964Z,10.43
2023-05-17T13:17:11.556Z,10.45
2023-05-17T13:19:38.769Z,11.40
2023-05-17T13:22:06.013Z,9.80
2023-05-17T13:24:36.649Z,8.35
2023-05-17T13:27:03.955Z,7.88
2023-05-17T13:29:39.008Z,7.68
2023-05-17T13:32:07.014Z,7.95
2023-05-17T13:34:33.669Z,7.72
2023-05-17T13:37:01.249Z,10.10
2023-05-17T13:39:27.955Z,7.90
2023-05-17T13:41:54.618Z,11.35
2023-05-17T13:44:21.269Z,9.93
2023-05-17T13:46:47.946Z,8.00
2023-05-17T13:49:14.805Z,8.88
2023-05-17T13:51:42.676Z,8.10
2023-05-17T13:54:10.546Z,10.43
2023-05-17T13:56:37.295Z,10.15
2023-05-17T13:59:04.021Z,9.85
2023-05-17T14:01:31.041Z,7.80
2023-05-17T14:03:57.825Z,9.00
2023-05-17T14:06:24.681Z,11.85
2023-05-17T14:08:53.301Z,8.60
2023-05-17T14:11:19.988Z,9.38
2023-05-17T14:13:46.877Z,9.88
2023-05-17T14:16:14.548Z,7.72
2023-05-17T14:18:41.519Z,8.88
2023-05-17T14:21:08.376Z,9.93
2023-05-17T14:23:35.305Z,9.30
2023-05-17T14:26:05.294Z,10.63
2023-05-17T14:28:31.963Z,7.72
2023-05-17T14:30:58.792Z,8.93
2023-05-17T14:33:26.991Z,9.00
2023-05-17T14:35:53.768Z,12.00
2023-05-17T14:38:23.228Z,12.95
2023-05-17T14:40:50.141Z,11.80
2023-05-17T14:43:17.020Z,9.82
2023-05-17T14:45:43.684Z,10.10
2023-05-17T14:48:10.522Z,10.10
2023-05-17T14:50:37.242Z,11.45
2023-05-17T14:53:03.948Z,10.85
2023-05-17T14:55:30.905Z,10.48
2023-05-17T14:57:58.075Z,9.73
2023-05-17T15:00:25.633Z,9.18
2023-05-17T15:02:52.382Z,11.40
2023-05-17T15:05:20.023Z,11.80
2023-05-17T15:07:47.603Z,11.40
2023-05-17T15:10:15.023Z,10.57
2023-05-17T15:12:41.648Z,12.63
2023-05-17T15:15:08.987Z,12.48
2023-05-17T15:17:35.666Z,11.68
2023-05-17T15:20:02.450Z,11.60
2023-05-17T15:22:29.474Z,9.60
2023-05-17T15:24:57.788Z,12.50
2023-05-17T15:27:24.492Z,10.25
2023-05-17T15:29:51.301Z,11.85
2023-05-17T15:32:18.048Z,13.43
2023-05-17T15:34:45.479Z,9.63
2023-05-17T15:37:12.229Z,11.10
2023-05-17T15:39:39.110Z,12.93
2023-05-17T15:42:05.994Z,12.07
2023-05-17T15:44:32.737Z,13.20
2023-05-17T15:47:01.497Z,12.70
2023-05-17T15:49:29.802Z,12.65
2023-05-17T15:51:56.751Z,10.75
2023-05-17T15:54:23.430Z,15.13
2023-05-17T15:56:50.099Z,12.35
2023-05-17T15:59:17.404Z,14.18
2023-05-17T16:01:46.337Z,13.00
2023-05-17T16:04:13.604Z,15.23
2023-05-17T16:06:40.697Z,12.40
2023-05-17T16:09:07.873Z,13.18
2023-05-17T16:11:35.880Z,11.68
2023-05-17T16:14:02.698Z,13.82
2023-05-17T16:16:29.649Z,12.50
2023-05-17T16:18:57.810Z,13.68
2023-05-17T16:21:24.625Z,13.93
2023-05-17T16:23:51.791Z,13.98
2023-05-17T16:26:18.895Z,15.75
2023-05-17T16:28:45.814Z,13.10
2023-05-17T16:31:12.619Z,13.95
2023-05-17T16:33:41.591Z,12.73
2023-05-17T16:36:12.445Z,13.77
2023-05-17T16:38:39.226Z,14.35
2023-05-17T16:41:06.117Z,12.27
2023-05-17T16:43:32.867Z,15.18
2023-05-17T16:45:59.611Z,13.45
2023-05-17T16:48:26.396Z,13.65
2023-05-17T16:50:53.290Z,15.60
2023-05-17T16:53:20.360Z,12.85
2023-05-17T16:55:47.043Z,15.93
2023-05-17T16:58:13.697Z,14.00
2023-05-17T17:00:40.652Z,14.57
2023-05-17T17:03:09.645Z,15.65
2023-05-17T17:05:36.781Z,17.58
2023-05-17T17:08:03.516Z,18.85
2023-05-17T17:10:30.378Z,15.63
2023-05-17T17:12:57.289Z,18.02
2023-05-17T17:15:24.132Z,13.55
2023-05-17T17:17:50.827Z,14.75
2023-05-17T17:20:18.124Z,17.33
2023-05-17T17:22:44.784Z,21.00
2023-05-17T17:25:11.472Z,15.70
2023-05-17T17:27:38.190Z,24.23
2023-05-17T17:30:05.549Z,17.63
2023-05-17T17:32:32.277Z,19.83
2023-05-17T17:34:59.087Z,21.08
2023-05-17T17:37:26.189Z,17.77
2023-05-17T17:39:52.899Z,22.75
2023-05-17T17:42:19.625Z,22.65
2023-05-17T17:44:46.325Z,22.38
2023-05-17T17:47:13.122Z,22.27
2023-05-17T17:49:39.985Z,20.50
2023-05-17T17:52:06.765Z,21.48
2023-05-17T17:54:33.497Z,24.63
2023-05-17T17:57:00.183Z,21.77
2023-05-17T17:59:26.926Z,21.63
2023-05-17T18:01:53.910Z,20.92
2023-05-17T18:04:20.717Z,22.08
2023-05-17T18:06:47.585Z,20.25
2023-05-17T18:09:14.300Z,18.38
2023-05-17T18:11:41.110Z,17.08
2023-05-17T18:14:08.226Z,18.60
2023-05-17T18:16:35.255Z,20.45
2023-05-17T18:19:14.438Z,16.92
2023-05-17T18:21:41.820Z,22.88
2023-05-17T18:24:08.866Z,17.95
2023-05-17T18:26:35.526Z,18.77
2023-05-17T18:29:02.169Z,20.77
2023-05-17T18:31:28.866Z,21.35
2023-05-17T18:33:57.360Z,18.15
2023-05-17T18:36:24.158Z,19.42
2023-05-17T18:38:50.909Z,20.60
2023-05-17T18:41:17.676Z,20.95
2023-05-17T18:43:44.376Z,18.70
2023-05-17T18:46:11.057Z,14.32
2023-05-17T18:48:38.901Z,20.38
2023-05-17T18:51:06.811Z,20.17
2023-05-17T18:53:33.613Z,17.98
2023-05-17T18:56:02.601Z,15.57
2023-05-17T18:58:29.566Z,16.10
2023-05-17T19:00:56.358Z,15.25
2023-05-17T19:03:23.020Z,20.73
2023-05-17T19:05:49.717Z,19.10
2023-05-17T19:08:16.459Z,22.60
2023-05-17T19:10:43.112Z,20.70
2023-05-17T19:13:09.856Z,18.25
2023-05-17T19:15:36.613Z,19.38
2023-05-17T19:18:03.439Z,19.88
2023-05-17T19:20:30.617Z,19.02
2023-05-17T19:22:57.513Z,23.33
2023-05-17T19:25:24.188Z,17.77
2023-05-17T19:27:50.963Z,18.95
2023-05-17T19:30:17.673Z,26.55
2023-05-17T19:32:44.407Z,23.55
2023-05-17T19:35:11.343Z,18.23
2023-05-17T19:37:38.021Z,21.40
2023-05-17T19:40:07.987Z,20.08
2023-05-17T19:42:34.603Z,22.90
2023-05-17T19:45:01.967Z,24.52
2023-05-17T19:47:28.678Z,25.00
2023-05-17T19:49:55.916Z,25.70
2023-05-17T19:52:22.727Z,24.15
2023-05-17T19:54:49.407Z,24.05
2023-05-17T19:57:16.076Z,19.70
2023-05-17T19:59:42.851Z,20.63
2023-05-17T20:02:09.771Z,20.58
2023-05-17T20:04:36.599Z,23.33
2023-05-17T20:07:03.552Z,20.67
2023-05-17T20:09:32.052Z,20.20
2023-05-17T20:11:58.817Z,20.15
2023-05-17T20:14:27.095Z,19.75
2023-05-17T20:16:54.039Z,21.58
2023-05-17T20:19:20.946Z,21.75
2023-05-17T20:21:47.801Z,22.67
2023-05-17T20:24:14.447Z,21.90
2023-05-17T20:26:41.157Z,21.92
2023-05-17T20:29:08.150Z,20.45
2023-05-17T20:31:35.366Z,20.70
2023-05-17T20:34:02.418Z,24.52
2023-05-17T20:36:29.158Z,24.55
2023-05-17T20:38:56.034Z,18.65
2023-05-17T20:41:22.730Z,20.77
2023-05-17T20:43:52.745Z,23.73
2023-05-17T20:46:19.624Z,23.85
2023-05-17T20:48:48.169Z,22.13
2023-05-17T20:51:15.577Z,25.27
2023-05-17T20:53:42.514Z,22.75
2023-05-17T20:56:09.277Z,27.73
2023-05-17T20:58:36.045Z,19.65
2023-05-17T21:01:02.898Z,25.95
2023-05-17T21:03:33.280Z,22.15
2023-05-17T21:06:05.396Z,25.05
2023-05-17T21:08:32.926Z,27.75
2023-05-17T21:10:59.797Z,25.60
2023-05-17T21:13:26.630Z,25.48
2023-05-17T21:15:56.409Z,22.13
2023-05-17T21:18:23.965Z,19.95
2023-05-17T21:20:51.094Z,21.30
2023-05-17T21:23:18.114Z,19.98
2023-05-17T21:25:44.777Z,21.13
2023-05-17T21:28:11.553Z,18.15
2023-05-17T21:30:38.510Z,22.83
2023-05-17T21:33:05.622Z,21.20
2023-05-17T21:35:32.550Z,20.75
2023-05-17T21:37:59.217Z,19.52
2023-05-17T21:40:25.981Z,21.17
2023-05-17T21:42:52.680Z,23.55
2023-05-17T21:45:19.467Z,17.95
2023-05-17T21:47:46.141Z,23.10
2023-05-17T21:50:12.932Z,20.63
2023-05-17T21:52:39.599Z,18.52
2023-05-17T21:55:07.137Z,26.83
2023-05-17T21:57:36.462Z,23.65
2023-05-17T22:00:04.936Z,23.02
2023-05-17T22:02:34.603Z,21.20
2023-05-17T22:05:01.676Z,21.23
2023-05-17T22:07:28.365Z,19.58
2023-05-17T22:09:55.255Z,18.58
2023-05-17T22:12:25.789Z,24.13
2023-05-17T22:14:56.827Z,20.63
2023-05-17T22:17:32.362Z,21.70
2023-05-17T22:20:09.781Z,22.58
2023-05-17T22:22:37.583Z,20.70
2023-05-17T22:25:04.899Z,23.77
2023-05-17T22:27:31.524Z,21.13
2023-05-17T22:29:58.274Z,23.55
2023-05-17T22:32:25.007Z,19.15
2023-05-17T22:34:52.890Z,25.55
2023-05-17T22:37:22.860Z,21.25
2023-05-17T22:39:49.613Z,17.27
2023-05-17T22:42:16.347Z,20.77
2023-05-17T22:44:43.027Z,19.77
2023-05-17T22:47:14.900Z,19.20
2023-05-17T22:49:42.006Z,19.70
2023-05-17T22:52:09.157Z,24.30
2023-05-17T22:54:36.730Z,23.63
2023-05-17T22:57:03.684Z,21.50
2023-05-17T22:59:30.591Z,20.50
2023-05-17T23:01:57.374Z,22.20
2023-05-17T23:04:26.943Z,22.05
2023-05-17T23:06:54.158Z,21.30
2023-05-17T23:09:21.966Z,21.23
2023-05-17T23:11:50.159Z,21.08
2023-05-17T23:14:17.765Z,23.65
2023-05-17T23:16:44.569Z,23.38
2023-05-17T23:19:11.266Z,22.10
2023-05-17T23:21:39.658Z,21.15
2023-05-17T23:24:08.141Z,21.58
2023-05-17T23:26:35.162Z,23.35
2023-05-17T23:29:03.578Z,20.40
2023-05-17T23:31:30.421Z,26.17
2023-05-17T23:33:57.139Z,20.80
2023-05-17T23:36:23.855Z,20.52
2023-05-17T23:38:50.565Z,16.95
2023-05-17T23:41:18.442Z,17.13
2023-05-17T23:43:45.272Z,18.60
2023-05-17T23:46:13.872Z,19.17
2023-05-17T23:48:40.788Z,20.70
2023-05-17T23:51:07.923Z,18.65
2023-05-17T23:53:34.589Z,21.02
2023-05-17T23:56:01.473Z,21.80
2023-05-17T23:58:28.130Z,20.85
